sensor_id;sensor_type;location;lat;lon;timestamp;P1;durP1;ratioP1;P2;durP2;ratioP2
42084;SDS011;27746;52.228;20.890;2023-07-31T00:00:29;4.05;;;2.08;;
42084;SDS011;27746;52.228;20.890;2023-07-31T00:02:57;4.53;;;1.80;;
42084;SDS011;27746;52.228;20.890;2023-07-31T00:05:25;3.28;;;1.90;;
42084;SDS011;27746;52.228;20.890;2023-07-31T00:07:52;4.38;;;2.20;;
42084;SDS011;27746;52.228;20.890;2023-07-31T00:10:19;3.83;;;1.98;;
42084;SDS011;27746;52.228;20.890;2023-07-31T00:12:47;5.93;;;1.63;;
42084;SDS011;27746;52.228;20.890;2023-07-31T00:15:14;7.72;;;2.88;;
42084;SDS011;27746;52.228;20.890;2023-07-31T00:17:41;4.72;;;1.83;;
42084;SDS011;27746;52.228;20.890;2023-07-31T00:20:08;2.97;;;1.73;;
42084;SDS011;27746;52.228;20.890;2023-07-31T00:22:37;4.80;;;1.90;;
42084;SDS011;27746;52.228;20.890;2023-07-31T00:25:04;2.97;;;1.75;;
42084;SDS011;27746;52.228;20.890;2023-07-31T00:27:31;4.30;;;1.90;;
42084;SDS011;27746;52.228;20.890;2023-07-31T00:29:58;3.50;;;2.08;;
42084;SDS011;27746;52.228;20.890;2023-07-31T00:32:25;4.63;;;1.90;;
42084;SDS011;27746;52.228;20.890;2023-07-31T00:34:51;4.53;;;2.03;;
42084;SDS011;27746;52.228;20.890;2023-07-31T00:37:18;4.05;;;1.63;;
42084;SDS011;27746;52.228;20.890;2023-07-31T00:39:47;3.85;;;2.05;;
42084;SDS011;27746;52.228;20.890;2023-07-31T00:42:13;3.45;;;2.08;;
42084;SDS011;27746;52.228;20.890;2023-07-31T00:44:40;3.63;;;2.35;;
42084;SDS011;27746;52.228;20.890;2023-07-31T00:47:07;4.78;;;1.92;;
42084;SDS011;27746;52.228;20.890;2023-07-31T00:49:34;6.53;;;2.45;;
42084;SDS011;27746;52.228;20.890;2023-07-31T00:52:01;3.22;;;1.73;;
42084;SDS011;27746;52.228;20.890;2023-07-31T00:54:28;4.10;;;1.70;;
42084;SDS011;27746;52.228;20.890;2023-07-31T00:56:57;3.22;;;1.85;;
42084;SDS011;27746;52.228;20.890;2023-07-31T00:59:24;3.10;;;1.75;;
42084;SDS011;27746;52.228;20.890;2023-07-31T01:01:51;3.35;;;1.80;;
42084;SDS011;27746;52.228;20.890;2023-07-31T01:04:18;3.42;;;2.35;;
42084;SDS011;27746;52.228;20.890;2023-07-31T01:06:47;3.22;;;1.95;;
42084;SDS011;27746;52.228;20.890;2023-07-31T01:09:20;3.90;;;2.03;;
42084;SDS011;27746;52.228;20.890;2023-07-31T01:11:56;4.20;;;2.10;;
42084;SDS011;27746;52.228;20.890;2023-07-31T01:14:27;3.67;;;2.00;;
42084;SDS011;27746;52.228;20.890;2023-07-31T01:16:55;3.92;;;1.98;;
42084;SDS011;27746;52.228;20.890;2023-07-31T01:19:22;3.50;;;1.95;;
42084;SDS011;27746;52.228;20.890;2023-07-31T01:21:58;2.95;;;1.80;;
42084;SDS011;27746;52.228;20.890;2023-07-31T01:24:49;3.30;;;2.05;;
42084;SDS011;27746;52.228;20.890;2023-07-31T01:27:24;6.05;;;1.90;;
42084;SDS011;27746;52.228;20.890;2023-07-31T01:29:59;4.15;;;2.20;;
42084;SDS011;27746;52.228;20.890;2023-07-31T01:32:35;3.38;;;2.08;;
42084;SDS011;27746;52.228;20.890;2023-07-31T01:35:05;3.55;;;2.15;;
42084;SDS011;27746;52.228;20.890;2023-07-31T01:37:32;4.63;;;2.33;;
42084;SDS011;27746;52.228;20.890;2023-07-31T01:40:00;4.47;;;2.17;;
42084;SDS011;27746;52.228;20.890;2023-07-31T01:42:30;3.63;;;2.03;;
42084;SDS011;27746;52.228;20.890;2023-07-31T01:44:57;3.63;;;2.10;;
42084;SDS011;27746;52.228;20.890;2023-07-31T01:47:24;3.80;;;2.40;;
42084;SDS011;27746;52.228;20.890;2023-07-31T01:49:53;3.80;;;2.10;;
42084;SDS011;27746;52.228;20.890;2023-07-31T01:52:19;3.92;;;2.20;;
42084;SDS011;27746;52.228;20.890;2023-07-31T01:54:47;4.13;;;1.98;;
42084;SDS011;27746;52.228;20.890;2023-07-31T01:57:13;4.03;;;2.45;;
42084;SDS011;27746;52.228;20.890;2023-07-31T01:59:42;4.03;;;2.38;;
42084;SDS011;27746;52.228;20.890;2023-07-31T02:02:09;6.72;;;2.47;;
42084;SDS011;27746;52.228;20.890;2023-07-31T02:04:36;4.78;;;2.58;;
42084;SDS011;27746;52.228;20.890;2023-07-31T02:07:04;4.75;;;2.63;;
42084;SDS011;27746;52.228;20.890;2023-07-31T02:09:31;3.70;;;2.45;;
42084;SDS011;27746;52.228;20.890;2023-07-31T02:11:59;3.40;;;2.20;;
42084;SDS011;27746;52.228;20.890;2023-07-31T02:14:25;4.72;;;2.65;;
42084;SDS011;27746;52.228;20.890;2023-07-31T02:16:54;3.42;;;2.40;;
42084;SDS011;27746;52.228;20.890;2023-07-31T02:19:20;5.15;;;2.83;;
42084;SDS011;27746;52.228;20.890;2023-07-31T02:21:47;4.10;;;2.40;;
42084;SDS011;27746;52.228;20.890;2023-07-31T02:24:14;4.45;;;2.10;;
42084;SDS011;27746;52.228;20.890;2023-07-31T02:26:42;4.38;;;2.67;;
42084;SDS011;27746;52.228;20.890;2023-07-31T02:29:09;4.18;;;2.53;;
42084;SDS011;27746;52.228;20.890;2023-07-31T02:31:36;4.55;;;3.13;;
42084;SDS011;27746;52.228;20.890;2023-07-31T02:34:04;4.03;;;2.70;;
42084;SDS011;27746;52.228;20.890;2023-07-31T02:36:31;5.20;;;2.70;;
42084;SDS011;27746;52.228;20.890;2023-07-31T02:38:58;4.55;;;2.78;;
42084;SDS011;27746;52.228;20.890;2023-07-31T02:41:25;4.50;;;2.72;;
42084;SDS011;27746;52.228;20.890;2023-07-31T02:43:52;5.50;;;2.85;;
42084;SDS011;27746;52.228;20.890;2023-07-31T02:46:19;4.38;;;3.00;;
42084;SDS011;27746;52.228;20.890;2023-07-31T02:48:49;8.52;;;3.10;;
42084;SDS011;27746;52.228;20.890;2023-07-31T02:51:18;5.53;;;3.13;;
42084;SDS011;27746;52.228;20.890;2023-07-31T02:53:46;6.47;;;2.75;;
42084;SDS011;27746;52.228;20.890;2023-07-31T02:56:14;9.27;;;2.72;;
42084;SDS011;27746;52.228;20.890;2023-07-31T02:58:41;4.93;;;2.80;;
42084;SDS011;27746;52.228;20.890;2023-07-31T03:01:08;10.98;;;3.10;;
42084;SDS011;27746;52.228;20.890;2023-07-31T03:03:35;5.20;;;3.15;;
42084;SDS011;27746;52.228;20.890;2023-07-31T03:06:02;4.63;;;2.63;;
42084;SDS011;27746;52.228;20.890;2023-07-31T03:08:30;5.78;;;2.58;;
42084;SDS011;27746;52.228;20.890;2023-07-31T03:10:57;5.00;;;2.70;;
42084;SDS011;27746;52.228;20.890;2023-07-31T03:13:24;6.32;;;2.92;;
42084;SDS011;27746;52.228;20.890;2023-07-31T03:15:51;5.75;;;2.65;;
42084;SDS011;27746;52.228;20.890;2023-07-31T03:18:19;4.40;;;2.83;;
42084;SDS011;27746;52.228;20.890;2023-07-31T03:20:46;4.60;;;2.83;;
42084;SDS011;27746;52.228;20.890;2023-07-31T03:23:12;5.07;;;2.83;;
42084;SDS011;27746;52.228;20.890;2023-07-31T03:25:52;5.97;;;2.90;;
42084;SDS011;27746;52.228;20.890;2023-07-31T03:28:22;5.33;;;3.10;;
42084;SDS011;27746;52.228;20.890;2023-07-31T03:30:49;4.88;;;3.08;;
42084;SDS011;27746;52.228;20.890;2023-07-31T03:33:16;4.72;;;2.67;;
42084;SDS011;27746;52.228;20.890;2023-07-31T03:35:43;9.25;;;3.60;;
42084;SDS011;27746;52.228;20.890;2023-07-31T03:38:11;4.70;;;2.80;;
42084;SDS011;27746;52.228;20.890;2023-07-31T03:40:38;5.07;;;3.08;;
42084;SDS011;27746;52.228;20.890;2023-07-31T03:43:06;5.93;;;2.53;;
42084;SDS011;27746;52.228;20.890;2023-07-31T03:45:33;4.70;;;2.90;;
42084;SDS011;27746;52.228;20.890;2023-07-31T03:48:00;5.15;;;3.05;;
42084;SDS011;27746;52.228;20.890;2023-07-31T03:50:28;5.55;;;3.28;;
42084;SDS011;27746;52.228;20.890;2023-07-31T03:52:55;6.72;;;3.13;;
42084;SDS011;27746;52.228;20.890;2023-07-31T03:55:22;5.18;;;2.80;;
42084;SDS011;27746;52.228;20.890;2023-07-31T03:57:49;6.65;;;2.65;;
42084;SDS011;27746;52.228;20.890;2023-07-31T04:00:17;5.18;;;3.00;;
42084;SDS011;27746;52.228;20.890;2023-07-31T04:02:44;4.50;;;2.90;;
42084;SDS011;27746;52.228;20.890;2023-07-31T04:05:11;5.72;;;2.80;;
42084;SDS011;27746;52.228;20.890;2023-07-31T04:07:38;4.97;;;2.88;;
42084;SDS011;27746;52.228;20.890;2023-07-31T04:10:05;4.40;;;2.85;;
42084;SDS011;27746;52.228;20.890;2023-07-31T04:12:32;5.03;;;2.92;;
42084;SDS011;27746;52.228;20.890;2023-07-31T04:14:59;6.63;;;2.63;;
42084;SDS011;27746;52.228;20.890;2023-07-31T04:17:30;7.47;;;3.72;;
42084;SDS011;27746;52.228;20.890;2023-07-31T04:19:57;7.63;;;3.30;;
42084;SDS011;27746;52.228;20.890;2023-07-31T04:22:24;5.95;;;2.72;;
42084;SDS011;27746;52.228;20.890;2023-07-31T04:24:51;5.18;;;2.90;;
42084;SDS011;27746;52.228;20.890;2023-07-31T04:27:18;6.18;;;3.13;;
42084;SDS011;27746;52.228;20.890;2023-07-31T04:29:45;5.40;;;2.75;;
42084;SDS011;27746;52.228;20.890;2023-07-31T04:32:12;7.10;;;3.22;;
42084;SDS011;27746;52.228;20.890;2023-07-31T04:34:43;9.13;;;3.40;;
42084;SDS011;27746;52.228;20.890;2023-07-31T04:37:10;6.38;;;3.25;;
42084;SDS011;27746;52.228;20.890;2023-07-31T04:39:37;6.97;;;2.88;;
42084;SDS011;27746;52.228;20.890;2023-07-31T04:42:04;5.28;;;3.00;;
42084;SDS011;27746;52.228;20.890;2023-07-31T04:44:31;7.18;;;3.22;;
42084;SDS011;27746;52.228;20.890;2023-07-31T04:46:58;7.05;;;3.60;;
42084;SDS011;27746;52.228;20.890;2023-07-31T04:49:24;5.30;;;3.00;;
42084;SDS011;27746;52.228;20.890;2023-07-31T04:51:53;6.38;;;3.00;;
42084;SDS011;27746;52.228;20.890;2023-07-31T04:54:20;5.38;;;3.10;;
42084;SDS011;27746;52.228;20.890;2023-07-31T04:56:46;5.47;;;2.30;;
42084;SDS011;27746;52.228;20.890;2023-07-31T04:59:14;10.38;;;3.60;;
42084;SDS011;27746;52.228;20.890;2023-07-31T05:01:41;6.65;;;2.63;;
42084;SDS011;27746;52.228;20.890;2023-07-31T05:04:08;8.48;;;3.00;;
42084;SDS011;27746;52.228;20.890;2023-07-31T05:06:35;6.22;;;2.50;;
42084;SDS011;27746;52.228;20.890;2023-07-31T05:09:03;5.90;;;2.85;;
42084;SDS011;27746;52.228;20.890;2023-07-31T05:11:30;7.30;;;3.38;;
42084;SDS011;27746;52.228;20.890;2023-07-31T05:13:57;6.20;;;2.80;;
42084;SDS011;27746;52.228;20.890;2023-07-31T05:16:24;8.13;;;3.15;;
42084;SDS011;27746;52.228;20.890;2023-07-31T05:18:52;4.75;;;2.60;;
42084;SDS011;27746;52.228;20.890;2023-07-31T05:21:19;4.35;;;2.38;;
42084;SDS011;27746;52.228;20.890;2023-07-31T05:23:46;9.07;;;2.78;;
42084;SDS011;27746;52.228;20.890;2023-07-31T05:26:14;3.75;;;2.50;;
42084;SDS011;27746;52.228;20.890;2023-07-31T05:28:41;4.35;;;2.42;;
42084;SDS011;27746;52.228;20.890;2023-07-31T05:31:07;4.40;;;2.80;;
42084;SDS011;27746;52.228;20.890;2023-07-31T05:33:34;4.78;;;3.05;;
42084;SDS011;27746;52.228;20.890;2023-07-31T05:36:01;5.75;;;3.20;;
42084;SDS011;27746;52.228;20.890;2023-07-31T05:38:28;3.45;;;2.30;;
42084;SDS011;27746;52.228;20.890;2023-07-31T05:40:55;10.45;;;2.70;;
42084;SDS011;27746;52.228;20.890;2023-07-31T05:43:24;8.63;;;3.05;;
42084;SDS011;27746;52.228;20.890;2023-07-31T05:45:51;6.53;;;2.47;;
42084;SDS011;27746;52.228;20.890;2023-07-31T05:48:18;4.57;;;2.60;;
42084;SDS011;27746;52.228;20.890;2023-07-31T05:50:45;10.00;;;3.08;;
42084;SDS011;27746;52.228;20.890;2023-07-31T05:53:12;4.45;;;2.28;;
42084;SDS011;27746;52.228;20.890;2023-07-31T05:55:39;5.65;;;3.05;;
42084;SDS011;27746;52.228;20.890;2023-07-31T05:58:06;4.78;;;2.42;;
42084;SDS011;27746;52.228;20.890;2023-07-31T06:00:34;10.60;;;4.03;;
42084;SDS011;27746;52.228;20.890;2023-07-31T06:03:03;6.97;;;3.03;;
42084;SDS011;27746;52.228;20.890;2023-07-31T06:05:29;7.32;;;2.72;;
42084;SDS011;27746;52.228;20.890;2023-07-31T06:07:56;5.95;;;2.92;;
42084;SDS011;27746;52.228;20.890;2023-07-31T06:10:23;3.58;;;2.30;;
42084;SDS011;27746;52.228;20.890;2023-07-31T06:12:50;5.50;;;2.30;;
42084;SDS011;27746;52.228;20.890;2023-07-31T06:15:17;5.93;;;2.53;;
42084;SDS011;27746;52.228;20.890;2023-07-31T06:17:45;5.40;;;2.65;;
42084;SDS011;27746;52.228;20.890;2023-07-31T06:20:12;7.13;;;2.92;;
42084;SDS011;27746;52.228;20.890;2023-07-31T06:22:39;7.18;;;3.55;;
42084;SDS011;27746;52.228;20.890;2023-07-31T06:25:06;5.40;;;2.88;;
42084;SDS011;27746;52.228;20.890;2023-07-31T06:27:33;7.07;;;3.50;;
42084;SDS011;27746;52.228;20.890;2023-07-31T06:30:01;5.90;;;2.90;;
42084;SDS011;27746;52.228;20.890;2023-07-31T06:32:28;6.93;;;3.97;;
42084;SDS011;27746;52.228;20.890;2023-07-31T06:34:56;7.95;;;3.38;;
42084;SDS011;27746;52.228;20.890;2023-07-31T06:37:23;6.25;;;2.67;;
42084;SDS011;27746;52.228;20.890;2023-07-31T06:39:50;9.52;;;2.78;;
42084;SDS011;27746;52.228;20.890;2023-07-31T06:42:17;8.68;;;3.10;;
42084;SDS011;27746;52.228;20.890;2023-07-31T06:44:44;6.80;;;2.88;;
42084;SDS011;27746;52.228;20.890;2023-07-31T06:47:11;6.68;;;2.75;;
42084;SDS011;27746;52.228;20.890;2023-07-31T06:49:38;4.75;;;2.97;;
42084;SDS011;27746;52.228;20.890;2023-07-31T06:52:07;6.65;;;2.65;;
42084;SDS011;27746;52.228;20.890;2023-07-31T06:54:34;5.32;;;2.95;;
42084;SDS011;27746;52.228;20.890;2023-07-31T06:57:01;6.15;;;2.97;;
42084;SDS011;27746;52.228;20.890;2023-07-31T06:59:28;7.40;;;2.90;;
42084;SDS011;27746;52.228;20.890;2023-07-31T07:01:56;4.15;;;2.78;;
42084;SDS011;27746;52.228;20.890;2023-07-31T07:04:23;5.57;;;2.88;;
42084;SDS011;27746;52.228;20.890;2023-07-31T07:06:51;4.65;;;2.70;;
42084;SDS011;27746;52.228;20.890;2023-07-31T07:09:20;4.97;;;2.60;;
42084;SDS011;27746;52.228;20.890;2023-07-31T07:11:47;4.53;;;2.95;;
42084;SDS011;27746;52.228;20.890;2023-07-31T07:14:14;5.13;;;3.05;;
42084;SDS011;27746;52.228;20.890;2023-07-31T07:16:41;5.40;;;3.42;;
42084;SDS011;27746;52.228;20.890;2023-07-31T07:19:08;7.55;;;2.85;;
42084;SDS011;27746;52.228;20.890;2023-07-31T07:21:35;5.50;;;3.05;;
42084;SDS011;27746;52.228;20.890;2023-07-31T07:24:02;5.35;;;2.95;;
42084;SDS011;27746;52.228;20.890;2023-07-31T07:26:31;5.22;;;2.63;;
42084;SDS011;27746;52.228;20.890;2023-07-31T07:28:57;6.55;;;3.35;;
42084;SDS011;27746;52.228;20.890;2023-07-31T07:31:27;10.18;;;4.85;;
42084;SDS011;27746;52.228;20.890;2023-07-31T07:33:53;6.38;;;2.78;;
42084;SDS011;27746;52.228;20.890;2023-07-31T07:36:22;6.68;;;2.83;;
42084;SDS011;27746;52.228;20.890;2023-07-31T07:38:49;5.80;;;2.65;;
42084;SDS011;27746;52.228;20.890;2023-07-31T07:41:16;5.47;;;2.40;;
42084;SDS011;27746;52.228;20.890;2023-07-31T07:43:45;6.90;;;2.83;;
42084;SDS011;27746;52.228;20.890;2023-07-31T07:46:11;5.43;;;2.35;;
42084;SDS011;27746;52.228;20.890;2023-07-31T07:48:39;6.35;;;2.38;;
42084;SDS011;27746;52.228;20.890;2023-07-31T07:51:06;6.13;;;2.50;;
42084;SDS011;27746;52.228;20.890;2023-07-31T07:53:32;5.50;;;2.42;;
42084;SDS011;27746;52.228;20.890;2023-07-31T07:55:59;5.32;;;2.20;;
42084;SDS011;27746;52.228;20.890;2023-07-31T07:58:26;4.90;;;2.28;;
42084;SDS011;27746;52.228;20.890;2023-07-31T08:00:55;6.10;;;2.30;;
42084;SDS011;27746;52.228;20.890;2023-07-31T08:03:21;6.55;;;2.53;;
42084;SDS011;27746;52.228;20.890;2023-07-31T08:05:48;5.82;;;2.75;;
42084;SDS011;27746;52.228;20.890;2023-07-31T08:08:15;5.65;;;3.50;;
42084;SDS011;27746;52.228;20.890;2023-07-31T08:10:43;9.40;;;3.63;;
42084;SDS011;27746;52.228;20.890;2023-07-31T08:13:10;8.05;;;2.85;;
42084;SDS011;27746;52.228;20.890;2023-07-31T08:15:38;6.13;;;2.38;;
42084;SDS011;27746;52.228;20.890;2023-07-31T08:18:09;4.55;;;2.42;;
42084;SDS011;27746;52.228;20.890;2023-07-31T08:20:37;6.65;;;2.47;;
42084;SDS011;27746;52.228;20.890;2023-07-31T08:23:04;4.65;;;2.30;;
42084;SDS011;27746;52.228;20.890;2023-07-31T08:25:34;4.82;;;2.10;;
42084;SDS011;27746;52.228;20.890;2023-07-31T08:28:01;3.97;;;2.60;;
42084;SDS011;27746;52.228;20.890;2023-07-31T08:30:28;4.55;;;2.70;;
42084;SDS011;27746;52.228;20.890;2023-07-31T08:32:55;5.03;;;2.35;;
42084;SDS011;27746;52.228;20.890;2023-07-31T08:35:23;6.90;;;2.58;;
42084;SDS011;27746;52.228;20.890;2023-07-31T08:37:50;4.65;;;2.45;;
42084;SDS011;27746;52.228;20.890;2023-07-31T08:40:17;4.45;;;2.03;;
42084;SDS011;27746;52.228;20.890;2023-07-31T08:42:44;6.65;;;2.58;;
42084;SDS011;27746;52.228;20.890;2023-07-31T08:45:13;8.23;;;2.30;;
42084;SDS011;27746;52.228;20.890;2023-07-31T08:47:42;9.60;;;2.72;;
42084;SDS011;27746;52.228;20.890;2023-07-31T08:50:10;4.18;;;2.15;;
42084;SDS011;27746;52.228;20.890;2023-07-31T08:52:40;3.83;;;2.28;;
42084;SDS011;27746;52.228;20.890;2023-07-31T08:55:07;4.22;;;2.13;;
42084;SDS011;27746;52.228;20.890;2023-07-31T08:57:35;4.07;;;2.60;;
42084;SDS011;27746;52.228;20.890;2023-07-31T09:00:04;5.40;;;2.20;;
42084;SDS011;27746;52.228;20.890;2023-07-31T09:02:34;6.97;;;3.13;;
42084;SDS011;27746;52.228;20.890;2023-07-31T09:05:07;4.50;;;2.20;;
42084;SDS011;27746;52.228;20.890;2023-07-31T09:07:35;4.93;;;2.03;;
42084;SDS011;27746;52.228;20.890;2023-07-31T09:10:04;5.55;;;2.05;;
42084;SDS011;27746;52.228;20.890;2023-07-31T09:12:32;4.63;;;2.00;;
42084;SDS011;27746;52.228;20.890;2023-07-31T09:14:59;3.70;;;1.60;;
42084;SDS011;27746;52.228;20.890;2023-07-31T09:17:30;9.50;;;2.50;;
42084;SDS011;27746;52.228;20.890;2023-07-31T09:19:58;8.02;;;2.63;;
42084;SDS011;27746;52.228;20.890;2023-07-31T09:22:38;5.78;;;2.55;;
42084;SDS011;27746;52.228;20.890;2023-07-31T09:25:15;4.57;;;2.20;;
42084;SDS011;27746;52.228;20.890;2023-07-31T09:27:46;5.45;;;2.20;;
42084;SDS011;27746;52.228;20.890;2023-07-31T09:30:13;8.63;;;2.17;;
42084;SDS011;27746;52.228;20.890;2023-07-31T09:32:40;5.20;;;2.10;;
42084;SDS011;27746;52.228;20.890;2023-07-31T09:35:18;3.50;;;1.83;;
42084;SDS011;27746;52.228;20.890;2023-07-31T09:37:50;4.95;;;1.83;;
42084;SDS011;27746;52.228;20.890;2023-07-31T09:40:28;5.90;;;2.67;;
42084;SDS011;27746;52.228;20.890;2023-07-31T09:42:56;8.77;;;3.08;;
42084;SDS011;27746;52.228;20.890;2023-07-31T09:45:23;5.15;;;2.15;;
42084;SDS011;27746;52.228;20.890;2023-07-31T09:47:50;7.55;;;2.00;;
42084;SDS011;27746;52.228;20.890;2023-07-31T09:50:17;3.78;;;1.70;;
42084;SDS011;27746;52.228;20.890;2023-07-31T09:52:46;4.28;;;1.77;;
42084;SDS011;27746;52.228;20.890;2023-07-31T09:55:12;3.83;;;2.20;;
42084;SDS011;27746;52.228;20.890;2023-07-31T09:57:41;5.78;;;1.95;;
42084;SDS011;27746;52.228;20.890;2023-07-31T10:00:10;3.53;;;1.70;;
42084;SDS011;27746;52.228;20.890;2023-07-31T10:02:38;5.57;;;1.88;;
42084;SDS011;27746;52.228;20.890;2023-07-31T10:05:06;5.45;;;2.00;;
42084;SDS011;27746;52.228;20.890;2023-07-31T10:07:35;6.28;;;2.40;;
42084;SDS011;27746;52.228;20.890;2023-07-31T10:10:03;5.78;;;2.00;;
42084;SDS011;27746;52.228;20.890;2023-07-31T10:12:32;3.78;;;2.03;;
42084;SDS011;27746;52.228;20.890;2023-07-31T10:15:01;4.85;;;2.08;;
42084;SDS011;27746;52.228;20.890;2023-07-31T10:17:28;3.13;;;1.55;;
42084;SDS011;27746;52.228;20.890;2023-07-31T10:19:56;4.45;;;1.40;;
42084;SDS011;27746;52.228;20.890;2023-07-31T10:22:24;3.17;;;1.40;;
42084;SDS011;27746;52.228;20.890;2023-07-31T10:24:52;4.25;;;1.70;;
42084;SDS011;27746;52.228;20.890;2023-07-31T10:27:20;2.92;;;1.60;;
42084;SDS011;27746;52.228;20.890;2023-07-31T10:29:47;4.18;;;1.92;;
42084;SDS011;27746;52.228;20.890;2023-07-31T10:32:19;4.28;;;1.50;;
42084;SDS011;27746;52.228;20.890;2023-07-31T10:34:47;6.63;;;1.77;;
42084;SDS011;27746;52.228;20.890;2023-07-31T10:37:22;5.90;;;1.60;;
42084;SDS011;27746;52.228;20.890;2023-07-31T10:39:59;3.88;;;1.50;;
42084;SDS011;27746;52.228;20.890;2023-07-31T10:42:32;4.90;;;1.70;;
42084;SDS011;27746;52.228;20.890;2023-07-31T10:45:01;4.23;;;1.57;;
42084;SDS011;27746;52.228;20.890;2023-07-31T10:47:31;3.13;;;1.60;;
42084;SDS011;27746;52.228;20.890;2023-07-31T10:52:54;5.90;;;1.60;;
42084;SDS011;27746;52.228;20.890;2023-07-31T10:55:24;3.78;;;1.90;;
42084;SDS011;27746;52.228;20.890;2023-07-31T10:57:52;4.88;;;1.58;;
42084;SDS011;27746;52.228;20.890;2023-07-31T11:00:21;3.53;;;1.20;;
42084;SDS011;27746;52.228;20.890;2023-07-31T11:03:01;4.57;;;1.77;;
42084;SDS011;27746;52.228;20.890;2023-07-31T11:05:49;4.15;;;1.33;;
42084;SDS011;27746;52.228;20.890;2023-07-31T11:08:19;3.10;;;1.08;;
42084;SDS011;27746;52.228;20.890;2023-07-31T11:10:48;5.55;;;1.45;;
42084;SDS011;27746;52.228;20.890;2023-07-31T11:13:16;4.00;;;1.30;;
42084;SDS011;27746;52.228;20.890;2023-07-31T11:15:43;4.57;;;1.70;;
42084;SDS011;27746;52.228;20.890;2023-07-31T11:18:13;3.42;;;1.35;;
42084;SDS011;27746;52.228;20.890;2023-07-31T11:20:41;4.30;;;1.20;;
42084;SDS011;27746;52.228;20.890;2023-07-31T11:23:08;3.60;;;1.20;;
42084;SDS011;27746;52.228;20.890;2023-07-31T11:25:36;6.05;;;1.30;;
42084;SDS011;27746;52.228;20.890;2023-07-31T11:28:05;5.10;;;1.10;;
42084;SDS011;27746;52.228;20.890;2023-07-31T11:30:33;2.17;;;1.05;;
42084;SDS011;27746;52.228;20.890;2023-07-31T11:33:01;3.47;;;1.05;;
42084;SDS011;27746;52.228;20.890;2023-07-31T11:35:31;3.97;;;1.17;;
42084;SDS011;27746;52.228;20.890;2023-07-31T11:37:58;3.75;;;1.42;;
42084;SDS011;27746;52.228;20.890;2023-07-31T11:40:26;3.95;;;1.20;;
42084;SDS011;27746;52.228;20.890;2023-07-31T11:42:55;6.55;;;1.88;;
42084;SDS011;27746;52.228;20.890;2023-07-31T11:45:24;10.80;;;1.65;;
42084;SDS011;27746;52.228;20.890;2023-07-31T11:47:53;4.22;;;1.10;;
42084;SDS011;27746;52.228;20.890;2023-07-31T11:50:22;4.95;;;1.50;;
42084;SDS011;27746;52.228;20.890;2023-07-31T11:52:53;9.00;;;1.20;;
42084;SDS011;27746;52.228;20.890;2023-07-31T11:55:22;5.28;;;1.50;;
42084;SDS011;27746;52.228;20.890;2023-07-31T11:57:51;6.63;;;1.42;;
42084;SDS011;27746;52.228;20.890;2023-07-31T12:00:18;3.20;;;1.58;;
42084;SDS011;27746;52.228;20.890;2023-07-31T12:02:46;4.93;;;1.55;;
42084;SDS011;27746;52.228;20.890;2023-07-31T12:05:13;6.22;;;1.38;;
42084;SDS011;27746;52.228;20.890;2023-07-31T12:07:44;5.35;;;1.40;;
42084;SDS011;27746;52.228;20.890;2023-07-31T12:10:24;6.10;;;1.70;;
42084;SDS011;27746;52.228;20.890;2023-07-31T12:13:02;3.78;;;1.67;;
42084;SDS011;27746;52.228;20.890;2023-07-31T12:15:33;3.40;;;1.30;;
42084;SDS011;27746;52.228;20.890;2023-07-31T12:18:03;5.07;;;1.90;;
42084;SDS011;27746;52.228;20.890;2023-07-31T12:20:31;6.40;;;1.83;;
42084;SDS011;27746;52.228;20.890;2023-07-31T12:22:59;4.60;;;1.52;;
42084;SDS011;27746;52.228;20.890;2023-07-31T12:25:34;2.92;;;1.67;;
42084;SDS011;27746;52.228;20.890;2023-07-31T12:28:05;4.50;;;1.40;;
42084;SDS011;27746;52.228;20.890;2023-07-31T12:30:36;3.88;;;1.60;;
42084;SDS011;27746;52.228;20.890;2023-07-31T12:33:04;3.97;;;2.03;;
42084;SDS011;27746;52.228;20.890;2023-07-31T12:35:34;5.22;;;1.40;;
42084;SDS011;27746;52.228;20.890;2023-07-31T12:38:02;6.10;;;1.65;;
42084;SDS011;27746;52.228;20.890;2023-07-31T12:40:29;4.38;;;1.70;;
42084;SDS011;27746;52.228;20.890;2023-07-31T12:42:58;4.97;;;2.10;;
42084;SDS011;27746;52.228;20.890;2023-07-31T12:45:28;7.05;;;2.05;;
42084;SDS011;27746;52.228;20.890;2023-07-31T12:47:55;4.82;;;1.45;;
42084;SDS011;27746;52.228;20.890;2023-07-31T12:50:24;4.32;;;1.65;;
42084;SDS011;27746;52.228;20.890;2023-07-31T12:52:51;5.75;;;1.70;;
42084;SDS011;27746;52.228;20.890;2023-07-31T12:55:19;5.57;;;1.73;;
42084;SDS011;27746;52.228;20.890;2023-07-31T12:57:46;6.35;;;2.67;;
42084;SDS011;27746;52.228;20.890;2023-07-31T13:00:15;4.97;;;2.40;;
42084;SDS011;27746;52.228;20.890;2023-07-31T13:02:44;4.38;;;1.60;;
42084;SDS011;27746;52.228;20.890;2023-07-31T13:05:11;3.70;;;1.10;;
42084;SDS011;27746;52.228;20.890;2023-07-31T13:07:38;5.00;;;1.58;;
42084;SDS011;27746;52.228;20.890;2023-07-31T13:10:06;6.25;;;1.50;;
42084;SDS011;27746;52.228;20.890;2023-07-31T13:12:33;3.70;;;1.30;;
42084;SDS011;27746;52.228;20.890;2023-07-31T13:15:00;3.75;;;1.65;;
42084;SDS011;27746;52.228;20.890;2023-07-31T13:17:29;5.25;;;1.17;;
42084;SDS011;27746;52.228;20.890;2023-07-31T13:19:56;4.45;;;1.58;;
42084;SDS011;27746;52.228;20.890;2023-07-31T13:22:23;5.25;;;2.10;;
42084;SDS011;27746;52.228;20.890;2023-07-31T13:24:50;3.65;;;1.20;;
42084;SDS011;27746;52.228;20.890;2023-07-31T13:27:17;5.93;;;1.58;;
42084;SDS011;27746;52.228;20.890;2023-07-31T13:29:46;3.42;;;1.95;;
42084;SDS011;27746;52.228;20.890;2023-07-31T13:32:13;4.97;;;1.48;;
42084;SDS011;27746;52.228;20.890;2023-07-31T13:34:41;7.38;;;1.50;;
42084;SDS011;27746;52.228;20.890;2023-07-31T13:37:08;5.40;;;1.85;;
42084;SDS011;27746;52.228;20.890;2023-07-31T13:39:35;6.63;;;1.63;;
42084;SDS011;27746;52.228;20.890;2023-07-31T13:42:02;6.40;;;1.40;;
42084;SDS011;27746;52.228;20.890;2023-07-31T13:44:31;5.13;;;1.58;;
42084;SDS011;27746;52.228;20.890;2023-07-31T13:46:59;7.28;;;1.75;;
42084;SDS011;27746;52.228;20.890;2023-07-31T13:49:27;4.25;;;1.60;;
42084;SDS011;27746;52.228;20.890;2023-07-31T13:51:56;4.35;;;1.30;;
42084;SDS011;27746;52.228;20.890;2023-07-31T13:54:23;7.25;;;1.30;;
42084;SDS011;27746;52.228;20.890;2023-07-31T13:56:50;5.18;;;1.65;;
42084;SDS011;27746;52.228;20.890;2023-07-31T13:59:18;5.72;;;1.30;;
42084;SDS011;27746;52.228;20.890;2023-07-31T14:01:45;4.88;;;1.40;;
42084;SDS011;27746;52.228;20.890;2023-07-31T14:04:12;9.85;;;1.52;;
42084;SDS011;27746;52.228;20.890;2023-07-31T14:06:40;6.32;;;1.63;;
42084;SDS011;27746;52.228;20.890;2023-07-31T14:09:08;3.22;;;1.63;;
42084;SDS011;27746;52.228;20.890;2023-07-31T14:11:35;6.50;;;1.40;;
42084;SDS011;27746;52.228;20.890;2023-07-31T14:14:02;11.85;;;2.25;;
42084;SDS011;27746;52.228;20.890;2023-07-31T14:16:29;8.05;;;1.55;;
42084;SDS011;27746;52.228;20.890;2023-07-31T14:18:56;4.90;;;1.48;;
42084;SDS011;27746;52.228;20.890;2023-07-31T14:21:27;5.05;;;1.80;;
42084;SDS011;27746;52.228;20.890;2023-07-31T14:23:54;3.53;;;1.55;;
42084;SDS011;27746;52.228;20.890;2023-07-31T14:26:23;5.15;;;2.05;;
42084;SDS011;27746;52.228;20.890;2023-07-31T14:28:49;5.32;;;1.38;;
42084;SDS011;27746;52.228;20.890;2023-07-31T14:31:16;6.45;;;2.25;;
42084;SDS011;27746;52.228;20.890;2023-07-31T14:33:43;4.63;;;1.70;;
42084;SDS011;27746;52.228;20.890;2023-07-31T14:36:10;4.22;;;1.73;;
42084;SDS011;27746;52.228;20.890;2023-07-31T14:38:37;3.63;;;1.55;;
42084;SDS011;27746;52.228;20.890;2023-07-31T14:41:04;4.22;;;1.40;;